Terminal Aerodrome Forecast
Issued by NWS

Home | Current Version | Previous Version | Text Only | Print | Product List | Glossary On
Versions: 1 2 3 4 5 6 7 8 9 10 11 12 13 14
000
FTUS42 KFFC 040521
TAFFTY
TAF
KFTY 040521Z 0406/0506 06004KT 6SM -RADZ OVC060
     FM041000 08008KT 5SM -RADZ OVC025
     FM041200 08010G15KT 5SM -RA BR BKN008 OVC025
     FM041500 08012G18KT 5SM -RA BR BKN006 OVC012
     FM050000 06007KT 3SM -RA BR OVC005=

USA.gov is the U.S. government's official web portal to all federal, state and local government web resources and services.